地図

経路データ

SID SEASON NUMBER BASIN SUBBASIN NAME ISO_TIME NATURE LAT LON WMO_WIND WMO_PRES WMO_AGENCY TRACK_TYPE DIST2LAND LANDFALL IFLAG USA_AGENCY USA_ATCF_ID USA_LAT USA_LON USA_RECORD USA_STATUS USA_WIND USA_PRES USA_SSHS USA_R34_NE USA_R34_SE USA_R34_SW USA_R34_NW USA_R50_NE USA_R50_SE USA_R50_SW USA_R50_NW USA_R64_NE USA_R64_SE USA_R64_SW USA_R64_NW USA_POCI USA_ROCI USA_RMW USA_EYE TOKYO_LAT TOKYO_LON TOKYO_GRADE TOKYO_WIND TOKYO_PRES TOKYO_R50_DIR TOKYO_R50_LONG TOKYO_R50_SHORT TOKYO_R30_DIR TOKYO_R30_LONG TOKYO_R30_SHORT TOKYO_LAND CMA_LAT CMA_LON CMA_CAT CMA_WIND CMA_PRES HKO_LAT HKO_LON HKO_CAT HKO_WIND HKO_PRES NEWDELHI_LAT NEWDELHI_LON NEWDELHI_GRADE NEWDELHI_WIND NEWDELHI_PRES NEWDELHI_CI NEWDELHI_DP NEWDELHI_POCI REUNION_LAT REUNION_LON REUNION_TYPE REUNION_WIND REUNION_PRES REUNION_TNUM REUNION_CI REUNION_RMW REUNION_R34_NE REUNION_R34_SE REUNION_R34_SW REUNION_R34_NW REUNION_R50_NE REUNION_R50_SE REUNION_R50_SW REUNION_R50_NW REUNION_R64_NE REUNION_R64_SE REUNION_R64_SW REUNION_R64_NW BOM_LAT BOM_LON BOM_TYPE BOM_WIND BOM_PRES BOM_TNUM BOM_CI BOM_RMW BOM_R34_NE BOM_R34_SE BOM_R34_SW BOM_R34_NW BOM_R50_NE BOM_R50_SE BOM_R50_SW BOM_R50_NW BOM_R64_NE BOM_R64_SE BOM_R64_SW BOM_R64_NW BOM_ROCI BOM_POCI BOM_EYE BOM_POS_METHOD BOM_PRES_METHOD NADI_LAT NADI_LON NADI_CAT NADI_WIND NADI_PRES WELLINGTON_LAT WELLINGTON_LON WELLINGTON_WIND WELLINGTON_PRES DS824_LAT DS824_LON DS824_STAGE DS824_WIND DS824_PRES TD9636_LAT TD9636_LON TD9636_STAGE TD9636_WIND TD9636_PRES TD9635_LAT TD9635_LON TD9635_WIND TD9635_PRES TD9635_ROCI NEUMANN_LAT NEUMANN_LON NEUMANN_CLASS NEUMANN_WIND NEUMANN_PRES MLC_LAT MLC_LON MLC_CLASS MLC_WIND MLC_PRES USA_GUST BOM_GUST BOM_GUST_PER REUNION_GUST REUNION_GUST_PER USA_SEAHGT USA_SEARAD_NE USA_SEARAD_SE USA_SEARAD_SW USA_SEARAD_NW STORM_SPEED STORM_DIR
1923263N15125 1923 63 WP MM NOT_NAMED 1923-09-20 10:00:00 NR 14.7000 125.000 main 108 108 __________O___ -1 14.7000 125.000 7 5 10
1923263N15125 1923 63 WP MM NOT_NAMED 1923-09-20 12:00:00 NR 14.8742 125.048 main 125 132 __________P___ -1 14.8742 125.048 7 5 16
1923263N15125 1923 63 WP MM NOT_NAMED 1923-09-20 15:00:00 NR 15.1328 125.120 main 150 150 __________P___ -1 15.1328 125.120 7 5 16
1923263N15125 1923 63 WP MM NOT_NAMED 1923-09-20 18:00:00 NR 15.3840 125.195 main 184 184 __________P___ -1 15.3840 125.195 7 5 17
1923263N15125 1923 63 WP MM NOT_NAMED 1923-09-20 21:00:00 NR 15.6235 125.273 main 208 208 __________P___ -1 15.6235 125.273 7 5 19
1923263N15125 1923 63 WP MM NOT_NAMED 1923-09-20 22:00:00 NR 15.7000 125.300 main 218 218 __________O___ -1 15.7000 125.300 7 5 19
1923263N15125 1923 63 WP MM NOT_NAMED 1923-09-21 00:00:00 NR 15.8474 125.356 main 233 243 __________P___ -1 15.8474 125.356 7 5 22
1923263N15125 1923 63 WP MM NOT_NAMED 1923-09-21 03:00:00 NR 16.0558 125.446 main 263 268 __________P___ -1 16.0558 125.446 7 4 24
1923263N15125 1923 63 WP MM NOT_NAMED 1923-09-21 06:00:00 NR 16.2520 125.546 main 287 292 __________P___ -1 16.2520 125.546 7 4 28
1923263N15125 1923 63 WP MM NOT_NAMED 1923-09-21 09:00:00 NR 16.4391 125.659 main 307 307 __________P___ -1 16.4391 125.659 7 4 31
1923263N15125 1923 63 WP MM NOT_NAMED 1923-09-21 10:00:00 NR 16.5000 125.700 main 317 317 __________O___ -1 16.5000 125.700 7 4 32
1923263N15125 1923 63 WP MM NOT_NAMED 1923-09-21 12:00:00 NR 16.5959 125.758 main 332 332 __________P___ -1 16.5959 125.758 7 3 33
1923263N15125 1923 63 WP MM NOT_NAMED 1923-09-21 15:00:00 NR 16.7329 125.856 main 347 347 __________P___ -1 16.7329 125.856 7 4 37
1923263N15125 1923 63 WP MM NOT_NAMED 1923-09-21 18:00:00 NR 16.8925 125.996 main 372 372 __________P___ -1 16.8925 125.996 7 5 42
1923263N15125 1923 63 WP MM NOT_NAMED 1923-09-21 21:00:00 NR 17.1091 126.208 main 393 393 __________P___ -1 17.1091 126.208 7 6 43
1923263N15125 1923 63 WP MM NOT_NAMED 1923-09-21 22:00:00 NR 17.2000 126.300 main 404 404 __________O___ -1 17.2000 126.300 7 9 43
1923263N15125 1923 63 WP MM NOT_NAMED 1923-09-22 00:00:00 NR 17.4422 126.528 main 427 428 __________P___ -1 17.4422 126.528 7 11 43
1923263N15125 1923 63 WP MM NOT_NAMED 1923-09-22 03:00:00 NR 17.8688 126.946 main 477 487 __________P___ -1 17.8688 126.946 7 12 44
1923263N15125 1923 63 WP MM NOT_NAMED 1923-09-22 06:00:00 NR 18.3268 127.426 main 538 548 __________P___ -1 18.3268 127.426 7 13 46
1923263N15125 1923 63 WP MM NOT_NAMED 1923-09-22 09:00:00 NR 18.7662 127.932 main 591 602 __________P___ -1 18.7662 127.932 7 13 48
1923263N15125 1923 63 WP MM NOT_NAMED 1923-09-22 10:00:00 NR 18.9000 128.100 main 613 613 __________O___ -1 18.9000 128.100 7 12 52
1923263N15125 1923 63 WP MM NOT_NAMED 1923-09-22 12:00:00 NR 19.1199 128.409 main 647 647 __________P___ -1 19.1199 128.409 7 11 55
1923263N15125 1923 63 WP MM NOT_NAMED 1923-09-22 15:00:00 NR 19.4122 128.878 main 703 703 __________P___ -1 19.4122 128.878 7 11 58
1923263N15125 1923 63 WP MM NOT_NAMED 1923-09-22 18:00:00 NR 19.6733 129.354 main 760 760 __________P___ -1 19.6733 129.354 7 10 61
1923263N15125 1923 63 WP MM NOT_NAMED 1923-09-22 21:00:00 NR 19.9189 129.837 main 805 815 __________P___ -1 19.9189 129.837 7 10 62
1923263N15125 1923 63 WP MM NOT_NAMED 1923-09-22 22:00:00 NR 20.0000 130.000 main 828 828 __________O___ -1 20.0000 130.000 7 11 61
1923263N15125 1923 63 WP MM NOT_NAMED 1923-09-23 00:00:00 NR 20.1775 130.336 main 863 873 __________P___ -1 20.1775 130.336 7 11 61
1923263N15125 1923 63 WP MM NOT_NAMED 1923-09-23 03:00:00 NR 20.4378 130.845 main 918 931 __________P___ -1 20.4378 130.845 7 11 62
1923263N15125 1923 63 WP MM NOT_NAMED 1923-09-23 06:00:00 NR 20.6878 131.352 main 987 987 __________P___ -1 20.6878 131.352 7 11 62
1923263N15125 1923 63 WP MM NOT_NAMED 1923-09-23 09:00:00 NR 20.9246 131.842 main 1033 1043 __________P___ -1 20.9246 131.842 7 10 63
1923263N15125 1923 63 WP MM NOT_NAMED 1923-09-23 10:00:00 NR 21.0000 132.000 main 1056 1056 __________O___ -1 21.0000 132.000 7 8 66
1923263N15125 1923 63 WP MM NOT_NAMED 1923-09-23 12:00:00 NR 21.0933 132.254 main 1088 1088 __________P___ -1 21.0933 132.254 7 7 69
1923263N15125 1923 63 WP MM NOT_NAMED 1923-09-23 15:00:00 NR 21.2202 132.613 main 1110 1094 __________P___ -1 21.2202 132.613 7 8 67
1923263N15125 1923 63 WP MM NOT_NAMED 1923-09-23 18:00:00 NR 21.3907 133.006 main 1096 1075 __________P___ -1 21.3907 133.006 7 9 61
1923263N15125 1923 63 WP MM NOT_NAMED 1923-09-23 21:00:00 NR 21.6709 133.501 main 1075 1067 __________P___ -1 21.6709 133.501 7 11 58
1923263N15125 1923 63 WP MM NOT_NAMED 1923-09-23 22:00:00 NR 21.8000 133.700 main 1069 1049 __________O___ -1 21.8000 133.700 7 16 56
1923263N15125 1923 63 WP MM NOT_NAMED 1923-09-24 00:00:00 NR 22.1260 134.236 main 1052 1024 __________P___ -1 22.1260 134.236 7 20 55
1923263N15125 1923 63 WP MM NOT_NAMED 1923-09-24 03:00:00 NR 22.7332 135.162 main 1028 996 __________P___ -1 22.7332 135.162 7 22 53
1923263N15125 1923 63 WP MM NOT_NAMED 1923-09-24 06:00:00 NR 23.4469 136.134 main 1002 972 __________P___ -1 23.4469 136.134 7 23 49
1923263N15125 1923 63 WP MM NOT_NAMED 1923-09-24 09:00:00 NR 24.2297 137.036 main 973 963 __________P___ -1 24.2297 137.036 7 23 45
1923263N15125 1923 63 WP MM NOT_NAMED 1923-09-24 10:00:00 NR 24.5000 137.300 main 963 943 __________O___ -1 24.5000 137.300 7 21 39
1923263N15125 1923 63 WP MM NOT_NAMED 1923-09-24 12:00:00 NR 25.0486 137.756 main 949 871 __________P___ -1 25.0486 137.756 7 20 33
1923263N15125 1923 63 WP MM NOT_NAMED 1923-09-24 15:00:00 NR 25.8888 138.286 main 871 797 __________P___ -1 25.8888 138.286 7 19 26
1923263N15125 1923 63 WP MM NOT_NAMED 1923-09-24 18:00:00 NR 26.7450 138.681 main 797 715 __________P___ -1 26.7450 138.681 7 18 20
1923263N15125 1923 63 WP MM NOT_NAMED 1923-09-24 21:00:00 NR 27.6107 139.000 main 715 689 __________P___ -1 27.6107 139.000 7 18 18
1923263N15125 1923 63 WP MM NOT_NAMED 1923-09-24 22:00:00 NR 27.9000 139.100 main 689 __________O___ -1 27.9000 139.100 7 18 16

デジタル台風データ・検索

IBTrACS Databaseについて

本データベースは、米国NOAAが公開する1842年以降の世界の熱帯低気圧のベストトラックデータアーカイブInternational Best Track Archive for Climate Stewardship (IBTrACS)を、ウェブで閲覧しやすい形式に変換したものです。

最終更新日:2021-10-19